KBVY/BVY METAR and TAF weather

Enter ICAO airport designator
Station Type Date Time Source
KBVY METAR 2020/09/19 20:53 UTC NOAA

KBVY 192053Z 17006KT 10SM CLR 15/01 A3028 RMK AO2 SLP248 T01500011 55005


Station Type Date Time Source
KBVY Decoded METAR 2020/09/19 20:53 UTC NOAA

BEVERLY MUNICIPAL AIRPORT, MA, United States (KBVY) 42-35N 070-55W 28M
Sep 19, 2020 - 04:53 PM EDT / 2020.09.19 2053 UTC
Wind: from the S (170 degrees) at 7 MPH (6 KT):0
Visibility: 10 mile(s):0
Sky conditions: clear
Temperature: 59.0 F (15.0 C)
Dew Point: 34.0 F (1.1 C)
Relative Humidity: 38%
Pressure (altimeter): 30.28 in. Hg (1025 hPa)
Pressure tendency: 0.01 inches (0.5 hPa) lower than three hours ago
ob: KBVY 192053Z 17006KT 10SM CLR 15/01 A3028 RMK AO2 SLP248 T01500011 55005
cycle: 21

Station Type Date Time Source
KBVY TAF UTC NOAA

Error!

Example: see airport list